Time;durP1;ratioP1;P1;durP2;ratioP2;P2;SDS_P1;SDS_P2;PMS_P1;PMS_P2;Temp;Humidity;BMP_temperature;BMP_pressure;BME280_temperature;BME280_humidity;BME280_pressure;Samples;Min_cycle;Max_cycle;Signal;HPM_P1;HPM_P2
2021/11/29 00:02:06;;;;;;;2.40;2.00;;;;;;;2.34;92.25;100601.50;5021800;28;20257;-81
2021/11/29 00:04:32;;;;;;;3.67;2.40;;;;;;;2.34;92.48;100604.91;5037968;28;20228;-81
2021/11/29 00:06:57;;;;;;;4.10;2.03;;;;;;;2.32;92.39;100613.56;5021753;28;20030;-81
2021/11/29 00:09:22;;;;;;;3.17;1.95;;;;;;;2.29;92.49;100630.84;5037652;28;20036;-81
2021/11/29 00:11:48;;;;;;;2.70;2.00;;;;;;;2.30;92.19;100636.84;5038383;28;20064;-81
2021/11/29 00:14:13;;;;;;;4.25;2.05;;;;;;;2.31;92.51;100643.75;5037296;28;20033;-81
2021/11/29 00:16:39;;;;;;;5.50;2.05;;;;;;;2.32;92.87;100642.84;5039101;28;20041;-81
2021/11/29 00:19:05;;;;;;;3.00;1.60;;;;;;;2.33;92.67;100636.81;5038915;28;20029;-81
2021/11/29 00:21:33;;;;;;;1.88;1.67;;;;;;;2.33;92.58;100647.16;5017573;28;20038;-81
2021/11/29 00:23:59;;;;;;;3.00;1.65;;;;;;;2.32;92.59;100647.19;5022162;28;20034;-81
2021/11/29 00:26:25;;;;;;;3.45;1.67;;;;;;;2.33;92.64;100654.91;5035435;28;20084;-81
2021/11/29 00:28:50;;;;;;;4.05;1.35;;;;;;;2.32;92.59;100652.34;5037360;28;20045;-81
2021/11/29 00:31:16;;;;;;;1.90;1.73;;;;;;;2.31;92.62;100643.75;5027611;28;20041;-81
2021/11/29 00:33:41;;;;;;;1.33;1.23;;;;;;;2.29;92.69;100632.53;5003304;28;20029;-81
2021/11/29 00:36:06;;;;;;;1.15;1.13;;;;;;;2.30;92.44;100631.69;5037458;28;20376;-81
2021/11/29 00:38:32;;;;;;;1.70;1.15;;;;;;;2.25;92.49;100625.69;5037332;28;20048;-81
2021/11/29 00:40:58;;;;;;;9.52;1.63;;;;;;;2.24;92.26;100624.84;5035786;28;20353;-81
2021/11/29 00:43:24;;;;;;;1.98;1.10;;;;;;;2.22;92.41;100626.59;5020628;28;20025;-81
2021/11/29 00:45:49;;;;;;;9.65;1.30;;;;;;;2.21;92.31;100616.25;5019822;28;20029;-81
2021/11/29 00:48:14;;;;;;;3.58;0.90;;;;;;;2.19;92.43;100621.44;5036405;28;20041;-81
2021/11/29 00:50:40;;;;;;;0.93;0.73;;;;;;;2.19;92.29;100624.03;5019049;28;20401;-81
2021/11/29 00:53:06;;;;;;;1.63;0.93;;;;;;;2.16;92.18;100623.19;5036195;28;20088;-81
2021/11/29 00:55:31;;;;;;;1.70;0.90;;;;;;;2.16;92.53;100628.38;5035613;28;20063;-81
2021/11/29 00:57:57;;;;;;;1.50;0.90;;;;;;;2.16;92.78;100630.94;5036148;28;20076;-81
2021/11/29 01:00:23;;;;;;;1.05;0.88;;;;;;;2.18;92.84;100637.81;5036105;28;20041;-81
2021/11/29 01:02:48;;;;;;;1.73;1.13;;;;;;;2.23;92.87;100630.88;5021417;28;20049;-81
2021/11/29 01:05:13;;;;;;;2.17;1.10;;;;;;;2.27;93.17;100642.03;5036937;28;20041;-81
2021/11/29 01:07:39;;;;;;;2.08;1.10;;;;;;;2.26;93.12;100645.50;5038315;28;20025;-81
2021/11/29 01:10:06;;;;;;;1.10;1.05;;;;;;;2.23;92.97;100646.38;5037563;28;20029;-81
2021/11/29 01:12:31;;;;;;;1.25;1.00;;;;;;;2.22;92.93;100654.13;5036920;28;20045;-81
2021/11/29 01:14:57;;;;;;;3.13;1.10;;;;;;;2.20;92.85;100650.72;5038475;28;20033;-81
2021/11/29 01:17:22;;;;;;;1.02;0.90;;;;;;;2.20;92.80;100655.88;5036965;28;20087;-81
2021/11/29 01:19:48;;;;;;;1.23;1.00;;;;;;;2.21;92.92;100650.69;5037256;28;20045;-81
2021/11/29 01:22:14;;;;;;;1.48;1.10;;;;;;;2.25;92.94;100661.88;5017757;28;1323993;-81
2021/11/29 01:24:39;;;;;;;1.25;1.20;;;;;;;2.32;93.27;100673.88;5040992;28;20083;-81
2021/11/29 01:27:05;;;;;;;0.88;0.80;;;;;;;2.41;93.27;100681.53;5024785;28;20466;-81
2021/11/29 01:29:30;;;;;;;0.70;0.70;;;;;;;2.57;93.55;100694.31;5040808;28;20045;-81
2021/11/29 01:31:56;;;;;;;2.13;1.50;;;;;;;2.84;93.54;100708.69;5024689;28;20040;-81
2021/11/29 01:34:21;;;;;;;1.10;1.10;;;;;;;3.08;93.74;100702.38;5040352;28;20337;-81
2021/11/29 01:36:46;;;;;;;1.98;1.30;;;;;;;3.25;93.87;100696.97;5040901;28;20320;-81
2021/11/29 01:39:12;;;;;;;2.75;2.28;;;;;;;3.32;94.08;100679.66;5058558;28;20194;-81
2021/11/29 01:41:37;;;;;;;4.00;1.77;;;;;;;3.16;93.95;100686.75;5058464;28;20721;-81
2021/11/29 01:44:03;;;;;;;2.08;1.60;;;;;;;3.01;93.55;100687.78;5024183;28;20029;-81
2021/11/29 01:46:29;;;;;;;2.58;1.67;;;;;;;2.87;93.05;100681.06;5058526;28;20063;-81
2021/11/29 01:48:55;;;;;;;2.40;1.90;;;;;;;2.76;93.08;100677.72;5023987;28;20037;-81
2021/11/29 01:51:20;;;;;;;3.72;1.77;;;;;;;2.68;93.04;100685.56;5041286;28;20390;-81
2021/11/29 01:53:46;;;;;;;3.42;2.10;;;;;;;2.62;93.05;100689.94;5062441;28;20028;-81
2021/11/29 01:56:11;;;;;;;2.30;2.10;;;;;;;2.58;93.18;100703.78;5044554;28;20044;-81
2021/11/29 01:58:38;;;;;;;2.30;2.10;;;;;;;2.55;93.15;100716.72;5044085;28;20252;-81
2021/11/29 02:01:07;;;;;;;3.17;2.30;;;;;;;2.59;93.44;100723.59;5027730;28;20025;-81
2021/11/29 02:03:33;;;;;;;4.82;2.85;;;;;;;2.64;93.65;100733.03;5028044;28;20029;-81
2021/11/29 02:05:58;;;;;;;3.35;2.47;;;;;;;2.67;93.84;100745.94;5027081;28;20036;-81
2021/11/29 02:08:24;;;;;;;3.13;2.92;;;;;;;2.63;93.71;100751.97;5043179;28;20036;-81
2021/11/29 02:10:49;;;;;;;3.63;3.10;;;;;;;2.62;93.70;100754.56;5028030;28;20075;-81
2021/11/29 02:13:16;;;;;;;4.40;3.63;;;;;;;2.64;93.70;100733.03;5061263;28;20210;-81
2021/11/29 02:15:42;;;;;;;6.03;3.58;;;;;;;2.61;93.76;100702.00;5026645;28;20029;-81
2021/11/29 02:18:07;;;;;;;4.07;3.00;;;;;;;2.53;92.81;100674.50;5043248;28;20252;-81
2021/11/29 02:20:36;;;;;;;4.88;3.20;;;;;;;2.47;92.67;100667.69;5042985;28;20044;-81
2021/11/29 02:23:01;;;;;;;3.50;3.30;;;;;;;2.45;92.60;100677.19;5027495;28;20116;-81
2021/11/29 02:25:27;;;;;;;3.60;2.92;;;;;;;2.42;92.71;100672.03;5043346;28;20499;-81
2021/11/29 02:27:52;;;;;;;3.60;3.17;;;;;;;2.39;92.82;100656.59;5044074;28;20406;-81
2021/11/29 02:30:19;;;;;;;5.35;2.92;;;;;;;2.34;92.63;100664.38;5043369;28;20032;-81
2021/11/29 02:32:45;;;;;;;4.28;3.13;;;;;;;2.30;92.54;100662.69;5027825;28;20272;-81
2021/11/29 02:35:10;;;;;;;3.58;3.13;;;;;;;2.29;92.61;100667.00;5043842;28;20084;-81
2021/11/29 02:37:36;;;;;;;3.58;2.97;;;;;;;2.26;92.56;100664.44;5027147;28;20318;-81
2021/11/29 02:40:02;;;;;;;2.92;2.72;;;;;;;2.23;92.53;100666.19;5043377;28;20247;-81
2021/11/29 02:42:28;;;;;;;4.22;2.67;;;;;;;2.20;92.62;100666.22;5027002;28;20029;-81
2021/11/29 02:44:53;;;;;;;2.78;2.42;;;;;;;2.19;92.58;100667.09;5026995;28;20079;-81
2021/11/29 02:47:19;;;;;;;3.10;2.90;;;;;;;2.18;92.60;100660.22;5043571;28;20131;-81
2021/11/29 02:49:44;;;;;;;2.90;2.70;;;;;;;2.13;92.52;100662.84;5043822;28;20346;-81
2021/11/29 02:52:12;;;;;;;3.53;2.78;;;;;;;2.10;92.48;100653.38;5052020;28;20065;-81
2021/11/29 02:54:43;;;;;;;4.13;3.13;;;;;;;2.09;92.45;100667.19;5043093;28;20064;-81
2021/11/29 02:57:11;;;;;;;4.95;3.38;;;;;;;2.07;92.58;100668.94;5044244;28;20283;-81
2021/11/29 02:59:37;;;;;;;4.90;3.55;;;;;;;2.06;92.53;100666.34;5043174;28;20021;-81
2021/11/29 03:02:04;;;;;;;5.32;3.05;;;;;;;2.07;92.72;100662.88;5061464;28;20108;-81
2021/11/29 03:04:31;;;;;;;5.80;3.17;;;;;;;2.05;92.93;100662.03;5041985;28;20043;-81
2021/11/29 03:06:56;;;;;;;3.75;3.20;;;;;;;2.06;93.05;100659.44;5026914;28;20237;-81
2021/11/29 03:09:22;;;;;;;4.13;3.72;;;;;;;2.06;93.13;100661.19;5026670;28;20036;-81
2021/11/29 03:11:48;;;;;;;5.45;3.25;;;;;;;2.05;93.01;100664.63;5023482;28;20064;-81
2021/11/29 03:14:14;;;;;;;3.15;2.95;;;;;;;2.05;92.93;100667.22;5006831;28;20317;-81
2021/11/29 03:16:39;;;;;;;2.95;2.65;;;;;;;2.02;92.98;100668.09;5040719;28;20039;-81
2021/11/29 03:19:05;;;;;;;3.53;2.60;;;;;;;2.02;92.90;100667.22;5006530;28;20033;-81
2021/11/29 03:21:30;;;;;;;3.05;2.80;;;;;;;2.04;93.15;100670.69;5006262;28;20021;-81
2021/11/29 03:23:59;;;;;;;2.85;2.65;;;;;;;2.05;93.26;100677.53;5006123;28;20045;-81
2021/11/29 03:26:25;;;;;;;2.67;2.33;;;;;;;2.06;93.25;100689.59;4990238;28;20033;-81
2021/11/29 03:28:56;;;;;;;3.15;2.55;;;;;;;2.07;93.39;100697.34;5024130;28;20025;-82
2021/11/29 03:31:25;;;;;;;4.22;2.88;;;;;;;2.11;93.53;100713.66;5034854;28;20037;-81
2021/11/29 03:33:55;;;;;;;3.92;2.60;;;;;;;2.17;93.66;100713.63;5044112;28;20476;-81
2021/11/29 03:36:20;;;;;;;2.70;2.50;;;;;;;2.21;93.76;100725.63;5061367;28;20423;-82
2021/11/29 03:38:46;;;;;;;4.70;2.58;;;;;;;2.21;93.79;100735.13;5061607;28;20029;-81
2021/11/29 03:41:11;;;;;;;4.82;2.90;;;;;;;2.20;93.80;100743.72;5061161;28;20294;-81
2021/11/29 03:43:38;;;;;;;2.80;2.60;;;;;;;2.16;93.45;100757.56;5061447;28;20120;-82
2021/11/29 03:46:04;;;;;;;2.78;2.58;;;;;;;2.19;93.27;100749.78;5043693;28;20271;-81
2021/11/29 03:48:29;;;;;;;1.88;1.77;;;;;;;2.32;93.73;100746.22;5043841;28;20041;-81
2021/11/29 03:50:54;;;;;;;3.53;1.88;;;;;;;2.51;93.88;100741.78;5042062;28;20040;-81
2021/11/29 03:53:20;;;;;;;3.10;2.28;;;;;;;2.56;93.97;100718.44;5009100;28;20336;-81
2021/11/29 03:55:46;;;;;;;5.05;1.40;;;;;;;2.51;93.86;100710.75;5042055;28;20044;-81
2021/11/29 03:58:12;;;;;;;3.13;1.58;;;;;;;2.47;93.49;100709.03;5029888;28;20032;-81
2021/11/29 04:00:37;;;;;;;1.58;1.00;;;;;;;2.43;93.28;100699.63;5059185;28;20045;-81
2021/11/29 04:03:03;;;;;;;4.60;1.25;;;;;;;2.43;92.98;100697.88;5025340;28;20036;-81
2021/11/29 04:05:28;;;;;;;3.67;1.20;;;;;;;2.43;93.28;100694.44;5041543;28;20044;-81
2021/11/29 04:07:54;;;;;;;2.35;1.00;;;;;;;2.42;93.38;100698.75;5042347;28;20112;-81
2021/11/29 04:10:20;;;;;;;2.88;0.85;;;;;;;2.42;93.42;100698.75;5041814;28;20217;-81
2021/11/29 04:12:46;;;;;;;0.98;0.70;;;;;;;2.43;93.46;100700.47;5060200;28;20063;-81
2021/11/29 04:15:11;;;;;;;2.00;0.40;;;;;;;2.40;93.52;100700.50;5041355;28;20379;-81
2021/11/29 04:17:39;;;;;;;3.55;0.65;;;;;;;2.39;93.35;100701.38;5009094;28;20036;-81
2021/11/29 04:20:05;;;;;;;4.80;0.55;;;;;;;2.37;93.27;100692.78;5025227;28;20017;-81
2021/11/29 04:22:31;;;;;;;3.38;0.60;;;;;;;2.36;93.21;100701.38;5041316;28;20036;-81
2021/11/29 04:24:59;;;;;;;2.03;0.65;;;;;;;2.35;93.13;100699.69;5025273;28;20035;-81
2021/11/29 04:27:25;;;;;;;3.63;1.23;;;;;;;2.33;93.15;100698.84;5025517;28;20264;-81
2021/11/29 04:29:50;;;;;;;9.98;1.13;;;;;;;2.33;92.90;100698.84;5042073;28;20066;-81
2021/11/29 04:32:16;;;;;;;4.88;0.50;;;;;;;2.33;92.75;100697.97;5041958;28;20237;-81
2021/11/29 04:34:41;;;;;;;1.92;0.60;;;;;;;2.31;92.72;100705.75;5041379;28;20082;-81
2021/11/29 04:37:06;;;;;;;3.22;0.50;;;;;;;2.32;92.78;100720.38;5025224;28;20108;-81
2021/11/29 04:39:33;;;;;;;3.10;0.90;;;;;;;2.35;92.89;100724.66;5024881;28;20029;-81
2021/11/29 04:41:59;;;;;;;7.35;1.73;;;;;;;2.45;93.16;100734.06;5024858;28;20029;-81
2021/11/29 04:44:24;;;;;;;2.50;0.63;;;;;;;2.67;93.61;100724.38;5059376;28;20045;-81
2021/11/29 04:46:50;;;;;;;7.70;1.02;;;;;;;2.85;93.66;100720.72;5059407;28;20067;-81
2021/11/29 04:49:15;;;;;;;13.07;1.73;;;;;;;2.98;93.90;100714.53;5024947;28;20032;-81
2021/11/29 04:51:40;;;;;;;2.67;0.90;;;;;;;3.04;93.76;100724.84;5059370;28;20100;-81
2021/11/29 04:54:09;;;;;;;1.90;0.63;;;;;;;3.08;94.05;100728.25;5025186;28;20236;-81
2021/11/29 04:56:34;;;;;;;3.45;0.50;;;;;;;3.18;94.20;100739.34;5058665;28;20224;-81
2021/11/29 04:58:59;;;;;;;8.23;1.10;;;;;;;3.22;93.96;100748.78;5040826;28;20021;-81
2021/11/29 05:01:25;;;;;;;6.00;0.77;;;;;;;3.16;92.98;100777.31;5058823;28;20216;-80
2021/11/29 05:03:52;;;;;;;5.38;0.63;;;;;;;3.23;92.98;100761.69;5058298;28;20244;-81
2021/11/29 05:06:17;;;;;;;4.35;0.70;;;;;;;3.36;93.07;100764.16;5040833;28;20332;-81
2021/11/29 05:08:43;;;;;;;3.70;1.00;;;;;;;3.39;93.01;100764.97;5024428;28;20040;-81
2021/11/29 05:11:08;;;;;;;7.43;0.90;;;;;;;3.45;93.11;100766.63;5056325;28;20237;-81
2021/11/29 05:13:34;;;;;;;6.47;1.00;;;;;;;3.38;92.23;100754.63;5041095;28;20037;-81
2021/11/29 05:15:59;;;;;;;1.63;0.70;;;;;;;3.29;91.20;100749.56;5058488;28;20401;-81
2021/11/29 05:18:25;;;;;;;5.68;1.02;;;;;;;3.22;90.98;100734.13;5024217;28;20032;-81
2021/11/29 05:20:50;;;;;;;10.75;1.35;;;;;;;3.23;90.25;100743.59;5041083;28;20040;-81
2021/11/29 05:23:16;;;;;;;3.05;0.82;;;;;;;3.22;90.38;100736.72;5040405;28;20057;-81
2021/11/29 05:25:42;;;;;;;5.63;1.08;;;;;;;3.23;90.54;100737.56;5058921;28;20029;-80
2021/11/29 05:28:08;;;;;;;6.22;1.05;;;;;;;3.29;91.13;100752.16;5061274;28;20059;-81
2021/11/29 05:30:33;;;;;;;6.28;0.77;;;;;;;3.30;91.50;100744.38;5044753;28;20044;-81
2021/11/29 05:32:59;;;;;;;4.50;0.68;;;;;;;3.28;91.74;100742.69;5045023;28;20056;-81
2021/11/29 05:35:24;;;;;;;5.10;1.08;;;;;;;3.25;92.19;100748.75;5028224;28;20041;-81
2021/11/29 05:37:49;;;;;;;5.55;0.77;;;;;;;3.18;91.63;100752.28;5011536;28;20040;-81
2021/11/29 05:40:15;;;;;;;7.93;1.10;;;;;;;3.13;91.49;100761.81;5044606;28;20328;-81
2021/11/29 05:42:41;;;;;;;2.20;0.65;;;;;;;3.12;91.55;100765.31;5044741;28;20037;-81
2021/11/29 05:45:09;;;;;;;3.58;1.05;;;;;;;3.16;92.17;100779.91;5044559;28;20025;-81
2021/11/29 05:47:35;;;;;;;2.53;0.88;;;;;;;3.20;92.33;100786.75;5028378;28;20067;-81
2021/11/29 05:50:01;;;;;;;5.07;0.75;;;;;;;3.36;92.47;100797.81;5027730;28;20025;-80
2021/11/29 05:52:26;;;;;;;8.93;1.02;;;;;;;3.59;93.04;100795.78;5044239;28;20028;-81
2021/11/29 05:54:52;;;;;;;2.20;0.65;;;;;;;3.81;93.30;100800.69;5044777;28;20280;-81
2021/11/29 05:57:17;;;;;;;2.78;1.27;;;;;;;3.85;92.78;100800.63;5062296;28;20236;-81
2021/11/29 05:59:43;;;;;;;3.30;0.80;;;;;;;3.91;92.90;100814.38;5044402;28;20530;-81
2021/11/29 06:02:09;;;;;;;2.55;0.95;;;;;;;4.01;93.15;100823.75;5027715;28;20037;-81
2021/11/29 06:04:34;;;;;;;3.53;1.30;;;;;;;4.07;93.28;100823.66;5043496;28;20047;-81
2021/11/29 06:06:59;;;;;;;2.55;0.70;;;;;;;4.12;93.55;100797.69;5044035;28;20032;-81
2021/11/29 06:09:25;;;;;;;7.32;0.98;;;;;;;4.09;93.39;100798.56;5061414;28;20056;-81
2021/11/29 06:11:50;;;;;;;2.80;0.70;;;;;;;3.95;90.90;100803.13;5044211;28;20040;-81
2021/11/29 06:14:16;;;;;;;2.03;0.35;;;;;;;3.81;89.34;100796.38;5043841;28;20151;-81
2021/11/29 06:16:41;;;;;;;1.50;0.65;;;;;;;3.73;88.77;100795.63;5061833;28;20045;-81
2021/11/29 06:19:07;;;;;;;5.40;0.77;;;;;;;3.68;89.75;100796.56;5043519;28;20033;-81
2021/11/29 06:21:32;;;;;;;4.38;1.20;;;;;;;3.59;90.10;100800.97;5026610;28;20033;-81
2021/11/29 06:23:58;;;;;;;3.03;1.00;;;;;;;3.54;90.40;100802.75;5061227;28;20045;-81
2021/11/29 06:26:23;;;;;;;2.85;0.85;;;;;;;3.49;90.67;100803.69;5052757;28;20035;-81
2021/11/29 06:28:48;;;;;;;2.90;0.90;;;;;;;3.41;90.98;100799.47;5025468;28;20205;-81
2021/11/29 06:31:14;;;;;;;5.88;0.88;;;;;;;3.37;91.19;100799.53;5043672;28;20059;-81
2021/11/29 06:33:39;;;;;;;3.17;0.70;;;;;;;3.34;91.60;100802.16;5042662;28;20025;-81
2021/11/29 06:36:05;;;;;;;7.13;1.10;;;;;;;3.32;91.63;100812.50;5060826;28;20055;-81
2021/11/29 06:38:31;;;;;;;2.95;0.52;;;;;;;3.33;91.83;100826.31;5043235;28;20087;-81
2021/11/29 06:40:56;;;;;;;2.95;0.68;;;;;;;3.36;92.26;100831.47;5039219;28;20052;-81
2021/11/29 06:43:22;;;;;;;2.83;0.88;;;;;;;3.38;92.44;100835.72;5056149;28;20074;-80
2021/11/29 06:45:48;;;;;;;4.25;1.00;;;;;;;3.42;92.69;100826.19;5058627;28;20134;-81
2021/11/29 06:48:14;;;;;;;4.60;1.48;;;;;;;3.41;92.62;100822.75;5024600;28;20205;-81
2021/11/29 06:50:39;;;;;;;3.33;1.00;;;;;;;3.40;92.57;100815.88;5042332;28;20031;-81
2021/11/29 06:53:05;;;;;;;3.45;1.15;;;;;;;3.38;92.15;100824.53;5059122;28;20272;-81
2021/11/29 06:55:32;;;;;;;8.80;1.23;;;;;;;3.38;92.04;100840.06;5023998;28;20347;-80
2021/11/29 06:57:58;;;;;;;1.90;0.90;;;;;;;3.38;92.34;100850.41;5060004;28;20036;-81
2021/11/29 07:00:24;;;;;;;7.43;1.02;;;;;;;3.44;92.88;100850.38;5041843;28;20052;-81
2021/11/29 07:02:50;;;;;;;6.45;1.10;;;;;;;3.45;93.06;100834.78;5024612;28;20039;-81
2021/11/29 07:05:15;;;;;;;3.35;0.93;;;;;;;3.42;93.30;100834.84;5024283;28;20028;-80
2021/11/29 07:07:41;;;;;;;3.53;0.65;;;;;;;3.38;93.11;100840.91;5058893;28;20029;-80
2021/11/29 07:10:07;;;;;;;7.20;1.38;;;;;;;3.34;92.80;100843.56;5059376;28;20411;-80
2021/11/29 07:12:33;;;;;;;4.90;1.40;;;;;;;3.30;92.80;100847.06;5040436;28;20268;-80
2021/11/29 07:14:59;;;;;;;4.65;1.13;;;;;;;3.28;92.94;100846.22;5059889;28;20040;-80
2021/11/29 07:17:24;;;;;;;4.88;1.25;;;;;;;3.25;92.92;100855.72;5009251;28;20021;-80
2021/11/29 07:19:53;;;;;;;4.65;1.20;;;;;;;3.23;92.88;100849.69;5025853;28;20235;-81
2021/11/29 07:22:20;;;;;;;4.53;1.15;;;;;;;3.20;92.76;100852.34;5060100;28;20045;-81
2021/11/29 07:24:45;;;;;;;4.10;1.02;;;;;;;3.18;92.55;100860.97;5025392;28;20080;-81
2021/11/29 07:27:11;;;;;;;3.33;0.80;;;;;;;3.15;92.59;100859.28;5025868;28;20344;-81
2021/11/29 07:29:36;;;;;;;4.25;1.05;;;;;;;3.14;92.70;100865.31;5059364;28;20040;-81
2021/11/29 07:32:02;;;;;;;8.40;1.38;;;;;;;3.12;92.70;100868.81;5053183;28;20453;-81
2021/11/29 07:34:27;;;;;;;4.35;1.30;;;;;;;3.10;92.99;100863.66;5039528;28;20037;-81
2021/11/29 07:36:53;;;;;;;9.25;1.60;;;;;;;3.08;92.87;100857.63;5006464;28;20048;-81
2021/11/29 07:39:18;;;;;;;7.70;1.50;;;;;;;3.11;92.92;100867.09;5040318;28;20033;-81
2021/11/29 07:41:44;;;;;;;7.88;1.42;;;;;;;3.11;93.19;100867.09;5025572;28;20036;-81
2021/11/29 07:44:09;;;;;;;2.95;1.48;;;;;;;3.07;93.16;100867.13;5038481;28;20060;-81
2021/11/29 07:46:35;;;;;;;12.43;1.85;;;;;;;3.04;93.07;100868.88;5038254;28;20299;-81
2021/11/29 07:49:00;;;;;;;7.28;1.80;;;;;;;3.05;92.98;100875.75;5052949;28;20240;-81
2021/11/29 07:51:27;;;;;;;12.38;3.05;;;;;;;3.03;93.02;100873.19;5038409;28;20044;-81
2021/11/29 07:53:53;;;;;;;5.90;2.50;;;;;;;3.01;92.98;100882.69;5020814;28;20036;-81
2021/11/29 07:56:19;;;;;;;9.20;3.10;;;;;;;2.98;92.98;100884.44;5021190;28;20052;-81
2021/11/29 07:58:44;;;;;;;11.85;3.03;;;;;;;2.95;92.68;100880.16;5054567;28;20075;-82
2021/11/29 08:01:11;;;;;;;10.07;2.13;;;;;;;2.95;92.61;100887.94;5036902;28;20033;-81
2021/11/29 08:03:37;;;;;;;7.55;1.98;;;;;;;2.96;92.82;100883.59;5040175;28;20040;-82
2021/11/29 08:06:02;;;;;;;5.95;2.00;;;;;;;3.00;92.91;100891.34;5035957;28;20100;-81
2021/11/29 08:08:28;;;;;;;9.70;1.58;;;;;;;3.06;92.97;100890.44;5022605;28;20032;-81
2021/11/29 08:10:53;;;;;;;6.53;1.45;;;;;;;3.12;92.78;100884.34;5033902;28;20040;-81
2021/11/29 08:13:19;;;;;;;1.88;1.02;;;;;;;3.21;92.84;100898.03;5036055;28;20028;-81
2021/11/29 08:15:44;;;;;;;5.35;1.02;;;;;;;3.31;92.58;100901.41;5023885;28;20040;-81
2021/11/29 08:18:10;;;;;;;6.47;1.02;;;;;;;3.40;92.59;100911.69;5037675;28;20033;-81
2021/11/29 08:20:36;;;;;;;3.65;1.08;;;;;;;3.46;92.47;100900.41;5019597;28;20032;-81
2021/11/29 08:23:01;;;;;;;4.57;1.20;;;;;;;3.52;92.43;100902.91;5004194;28;20382;-81
2021/11/29 08:25:27;;;;;;;8.90;1.30;;;;;;;3.60;92.32;100901.13;5015405;28;20041;-81
2021/11/29 08:27:52;;;;;;;7.18;1.30;;;;;;;3.65;91.85;100906.22;5020219;28;20056;-81
2021/11/29 08:30:19;;;;;;;3.97;1.08;;;;;;;3.69;91.67;100904.47;5055611;28;20044;-81
2021/11/29 08:32:44;;;;;;;3.17;0.75;;;;;;;3.74;91.71;100911.31;5022055;28;20044;-81
2021/11/29 08:35:10;;;;;;;5.22;0.90;;;;;;;3.81;91.77;100914.69;5022044;28;20406;-81
2021/11/29 08:37:37;;;;;;;8.30;1.02;;;;;;;3.83;91.54;100918.13;5036540;28;20036;-81
2021/11/29 08:40:03;;;;;;;5.60;1.13;;;;;;;3.87;91.41;100921.53;5045695;28;20033;-81
2021/11/29 08:42:28;;;;;;;8.65;1.30;;;;;;;3.88;91.19;100929.28;5016057;28;20163;-81
2021/11/29 08:44:54;;;;;;;2.38;0.93;;;;;;;4.00;91.52;100938.63;5021595;28;20020;-81
2021/11/29 08:47:21;;;;;;;12.10;2.35;;;;;;;4.16;91.86;100940.16;5035465;28;20087;-81
2021/11/29 08:49:47;;;;;;;5.95;1.50;;;;;;;4.21;92.29;100935.78;5035162;28;20332;-80
2021/11/29 08:52:12;;;;;;;9.43;2.22;;;;;;;4.23;92.63;100941.81;5047044;28;20067;-80
2021/11/29 08:54:40;;;;;;;13.48;2.38;;;;;;;4.21;92.75;100950.50;5021934;28;20044;-80
2021/11/29 08:57:06;;;;;;;19.73;3.90;;;;;;;4.18;93.11;100950.53;5030152;28;20029;-81
2021/11/29 08:59:32;;;;;;;13.95;3.90;;;;;;;4.13;92.89;100954.91;5056253;28;20070;-81
2021/11/29 09:01:58;;;;;;;11.82;4.40;;;;;;;4.10;92.84;100968.78;5037239;28;20033;-81
2021/11/29 09:04:23;;;;;;;21.50;6.57;;;;;;;4.07;93.08;100962.75;5041302;28;20338;-80
2021/11/29 09:06:48;;;;;;;17.42;6.57;;;;;;;4.03;93.35;100973.16;5042539;28;20035;-81
2021/11/29 09:09:14;;;;;;;9.73;4.03;;;;;;;4.01;93.40;100968.88;5059226;28;20398;-81
2021/11/29 09:11:40;;;;;;;13.15;3.55;;;;;;;3.99;93.70;100968.88;5009401;28;20387;-81
2021/11/29 09:14:05;;;;;;;10.82;3.45;;;;;;;3.99;93.94;100975.81;5022211;28;20035;-81
2021/11/29 09:16:31;;;;;;;12.15;4.80;;;;;;;3.98;94.05;100980.16;5042822;28;20046;-80
2021/11/29 09:18:56;;;;;;;9.23;3.33;;;;;;;3.98;94.09;100974.09;5010910;28;20032;-80
2021/11/29 09:21:22;;;;;;;14.85;2.80;;;;;;;4.01;94.10;100980.09;5059573;28;20052;-81
2021/11/29 09:23:48;;;;;;;6.68;2.42;;;;;;;4.06;94.34;100971.41;5004341;28;20045;-81
2021/11/29 09:26:13;;;;;;;9.77;2.70;;;;;;;4.14;94.28;100977.38;5031117;28;20049;-81
2021/11/29 09:28:39;;;;;;;6.75;2.22;;;;;;;4.19;94.32;100979.03;5038852;28;20033;-81
2021/11/29 09:31:04;;;;;;;4.40;1.80;;;;;;;4.21;94.41;100982.44;5039910;28;20208;-81
2021/11/29 09:33:30;;;;;;;14.73;2.00;;;;;;;4.25;93.83;100995.38;5036364;28;20045;-81
2021/11/29 09:35:56;;;;;;;7.03;1.17;;;;;;;4.29;94.05;101004.84;5039724;28;20112;-81
2021/11/29 09:38:22;;;;;;;7.60;1.40;;;;;;;4.38;93.98;101004.72;5019927;28;20136;-81
2021/11/29 09:40:47;;;;;;;5.45;1.00;;;;;;;4.45;93.84;101006.38;5037752;28;20041;-81
2021/11/29 09:43:14;;;;;;;11.10;1.20;;;;;;;4.55;93.37;101020.09;5038541;28;20045;-81
2021/11/29 09:45:40;;;;;;;8.25;1.60;;;;;;;4.58;92.89;101023.50;5021203;28;20057;-81
2021/11/29 09:48:07;;;;;;;5.57;1.02;;;;;;;4.55;91.93;101025.28;5023531;28;20037;-81
2021/11/29 09:50:33;;;;;;;7.00;1.52;;;;;;;4.55;90.83;101030.47;5035158;28;20276;-80
2021/11/29 09:52:58;;;;;;;4.05;0.75;;;;;;;4.54;90.42;101023.56;5022349;28;20280;-80
2021/11/29 09:55:25;;;;;;;3.00;0.70;;;;;;;4.55;90.10;101041.69;5038287;28;20048;-80
2021/11/29 09:57:51;;;;;;;10.40;1.85;;;;;;;4.55;89.90;101052.06;5038571;28;20375;-81
2021/11/29 10:00:31;;;;;;;6.07;1.05;;;;;;;4.54;88.78;101036.53;5022586;28;20049;-81
2021/11/29 10:02:57;;;;;;;4.55;1.08;;;;;;;4.54;88.77;101028.75;5007760;28;20030;-80
2021/11/29 10:05:23;;;;;;;6.53;3.55;;;;;;;4.51;88.98;101024.47;5023426;28;20053;-80
2021/11/29 10:07:49;;;;;;;11.38;2.72;;;;;;;4.53;89.34;101037.38;5021322;28;20045;-80
2021/11/29 10:10:24;;;;;;;8.63;1.38;;;;;;;4.52;89.50;101038.28;5039641;28;20059;-80
2021/11/29 10:12:52;;;;;;;7.85;1.45;;;;;;;4.53;89.49;101059.00;5043831;28;20325;-80
2021/11/29 10:15:22;;;;;;;4.00;1.00;;;;;;;4.53;89.34;101051.22;5025609;28;20038;-81
2021/11/29 10:17:53;;;;;;;7.28;1.23;;;;;;;4.52;89.04;101040.88;5040279;28;20040;-81
2021/11/29 10:20:18;;;;;;;5.18;0.88;;;;;;;4.50;89.60;101027.91;5021845;28;20126;-80
2021/11/29 10:23:04;;;;;;;4.03;0.98;;;;;;;4.51;89.11;101039.13;5040526;28;20072;-81
2021/11/29 10:25:29;;;;;;;7.32;1.17;;;;;;;4.52;89.03;101035.69;5039972;28;20310;-81
2021/11/29 10:27:55;;;;;;;10.40;1.85;;;;;;;4.55;89.33;101036.50;5040873;28;20095;-81
2021/11/29 10:30:23;;;;;;;6.85;1.45;;;;;;;4.58;89.57;101041.66;5060925;28;20045;-81
2021/11/29 10:32:49;;;;;;;10.43;1.15;;;;;;;4.60;89.34;101041.63;5041046;28;20045;-81
2021/11/29 10:35:23;;;;;;;10.73;1.55;;;;;;;4.64;89.57;101055.41;5006746;28;20041;-81
2021/11/29 10:37:49;;;;;;;3.63;1.00;;;;;;;4.68;89.92;101064.91;5021398;28;20259;-81
2021/11/29 10:40:15;;;;;;;8.70;1.27;;;;;;;4.70;89.47;101056.19;5024951;28;20291;-81
2021/11/29 10:42:41;;;;;;;6.93;1.33;;;;;;;4.69;89.04;101045.84;5042776;28;20296;-81
2021/11/29 10:45:08;;;;;;;5.82;1.98;;;;;;;4.69;88.90;101051.88;5023811;28;20320;-81
2021/11/29 10:47:35;;;;;;;11.10;1.60;;;;;;;4.72;88.91;101051.84;5024892;28;20048;-81
2021/11/29 10:50:01;;;;;;;8.55;1.25;;;;;;;4.72;88.88;101059.63;5032018;28;20040;-81
2021/11/29 10:52:29;;;;;;;8.63;1.73;;;;;;;4.73;88.69;101055.28;4999449;28;20044;-80
2021/11/29 10:54:55;;;;;;;5.43;0.88;;;;;;;4.74;88.71;101054.41;5023449;28;20047;-81
2021/11/29 10:57:21;;;;;;;5.57;1.23;;;;;;;4.76;88.86;101052.66;5037135;28;20852;-81
2021/11/29 10:59:48;;;;;;;1.65;0.95;;;;;;;4.78;88.83;101059.56;5037564;28;20055;-81
2021/11/29 11:02:15;;;;;;;6.28;1.00;;;;;;;4.79;88.94;101055.22;5039785;28;20108;-81
2021/11/29 11:04:42;;;;;;;4.28;0.70;;;;;;;4.80;88.95;101057.81;5020012;28;20029;-81
2021/11/29 11:07:11;;;;;;;3.95;0.60;;;;;;;4.83;89.03;101058.63;5021364;28;20033;-81
2021/11/29 11:09:39;;;;;;;5.63;0.90;;;;;;;4.83;88.74;101061.25;5037660;28;20328;-81
2021/11/29 11:12:09;;;;;;;9.93;1.00;;;;;;;4.84;88.46;101060.34;5020750;28;20247;-81
2021/11/29 11:14:39;;;;;;;7.85;1.10;;;;;;;4.87;88.44;101071.53;5019759;28;20023;-81
2021/11/29 11:17:06;;;;;;;0.95;0.50;;;;;;;4.92;88.36;101071.50;5056060;28;20087;-81
2021/11/29 11:19:42;;;;;;;1.55;0.55;;;;;;;4.97;88.02;101074.88;5023464;28;20041;-81
2021/11/29 11:22:22;;;;;;;6.25;0.80;;;;;;;4.98;87.55;101076.59;5024325;28;20041;-81
2021/11/29 11:25:03;;;;;;;5.32;0.98;;;;;;;4.97;87.21;101080.94;5039843;28;20292;-81
2021/11/29 11:27:36;;;;;;;3.90;0.80;;;;;;;4.98;87.31;101076.59;5057169;28;20104;-81